Main page
METAR-TAF:

METAR-TAF

Airports :

Málaga Airport

Málaga, Spain

latitude: 36-40N, longitude: 004-29W, elevation: 16 m

Current weather observation

The report was made 49 minutes ago, at 01:00 UTC
Wind 4 kt from the Southeast
Temperature 24°C
Humidity 83%
Pressure 1014 hPa
Visibility 10 km or more
no clouds below 1500 m and no cumulonimbus

METAR: LEMG 150100Z 13004KT CAVOK 24/21 Q1014 NOSIG

Time: 03:49 (01:49 UTC)

Forecast

The report was made 2 hours and 49 minutes ago, at 23:00 UTC
Forecast valid from 15 at 00 UTC to 15 at 24 UTC
Wind 2 kt from variable directions
Visibility 10 km or more
no clouds below 1500 m and no cumulonimbus
Becoming
from 15 at 02 UTC to 15 at 04 UTC
Wind 8 kt from the West/Northwest
Probability 30% :
Temporary
from 15 at 10 UTC to 15 at 18 UTC
Wind 6 kt from the South/Southwest

TAF: LEMG 142300Z 1500/1524 VRB02KT CAVOK TX34/1513Z TN24/1505Z BECMG 1502/1504 29008KT PROB30 TEMPO 1510/1518 20006KT

Weather observations and forecasts of more than 4000 airports (METAR and TAF reports).

The available stations are represented by yellow and red dots on the map.

Hover mouse over dot to see the name of the station.

Then click to see weather observations and forecasts.

To change the map : click on the green buttons with a black cross to zoom in, on the green button with a dash to zoom out, or on the green arrows for adjacent maps.


METAR-TAF: